Time;durP1;ratioP1;P1;durP2;ratioP2;P2;SDS_P1;SDS_P2;PMS_P1;PMS_P2;Temp;Humidity;BMP_temperature;BMP_pressure;BME280_temperature;BME280_humidity;BME280_pressure;Samples;Min_cycle;Max_cycle;Signal;HPM_P1;HPM_P2
2022/09/02 00:00:24;;;;;;;0.80;0.80;;;18.10;99.90;;;;;;5094408;28;20680;-81
2022/09/02 00:02:49;;;;;;;0.30;0.30;;;18.10;99.90;;;;;;5086360;28;20189;-82
2022/09/02 00:05:16;;;;;;;0.37;0.37;;;18.10;99.90;;;;;;5087004;28;20211;-81
2022/09/02 00:07:42;;;;;;;0.50;0.47;;;18.00;99.90;;;;;;5093394;28;20181;-81
2022/09/02 00:10:08;;;;;;;0.40;0.40;;;18.00;99.90;;;;;;5087582;28;20204;-82
2022/09/02 00:12:34;;;;;;;0.70;0.50;;;18.00;99.90;;;;;;5085914;28;20279;-82
2022/09/02 00:15:00;;;;;;;0.10;0.10;;;18.00;99.90;;;;;;5088375;28;20552;-82
2022/09/02 00:17:25;;;;;;;0.40;0.40;;;18.00;99.90;;;;;;5088824;28;20185;-81
2022/09/02 00:19:53;;;;;;;0.20;0.20;;;18.10;99.90;;;;;;5081884;28;20208;-81
2022/09/02 00:22:18;;;;;;;0.40;0.40;;;18.10;99.90;;;;;;5090700;28;20814;-81
2022/09/02 00:24:44;;;;;;;0.40;0.40;;;18.10;99.90;;;;;;5089022;28;20188;-82
2022/09/02 00:27:09;;;;;;;0.60;0.60;;;18.10;99.90;;;;;;5100776;28;20186;-82
2022/09/02 00:29:35;;;;;;;0.37;0.37;;;18.00;99.90;;;;;;5085974;28;20520;-81
2022/09/02 00:32:00;;;;;;;0.23;0.23;;;17.90;99.90;;;;;;5088334;28;20549;-82
2022/09/02 00:34:26;;;;;;;0.30;0.30;;;17.80;99.90;;;;;;5090440;28;20665;-82
2022/09/02 00:36:52;;;;;;;0.50;0.30;;;17.80;99.90;;;;;;5089730;28;20204;-81
2022/09/02 00:39:18;;;;;;;0.53;0.53;;;17.80;99.90;;;;;;5093986;28;20203;-81
2022/09/02 00:41:44;;;;;;;0.27;0.27;;;17.80;99.90;;;;;;5094488;28;20286;-81
2022/09/02 00:44:13;;;;;;;0.30;0.30;;;17.80;99.90;;;;;;5093505;28;20172;-82
2022/09/02 00:46:39;;;;;;;0.30;0.30;;;17.80;99.90;;;;;;5088377;28;20181;-81
2022/09/02 00:49:05;;;;;;;0.20;0.20;;;17.80;99.90;;;;;;5099537;28;20220;-82
2022/09/02 00:51:36;;;;;;;0.33;0.33;;;17.70;99.90;;;;;;5088978;28;20181;-82
2022/09/02 00:54:05;;;;;;;0.80;0.40;;;17.70;99.90;;;;;;5095834;28;20176;-82
2022/09/02 00:56:31;;;;;;;0.60;0.60;;;17.60;99.90;;;;;;5086044;28;20638;-81
2022/09/02 00:58:58;;;;;;;0.50;0.50;;;17.50;99.90;;;;;;5102718;28;20181;-82
2022/09/02 01:01:24;;;;;;;0.37;0.37;;;17.50;99.90;;;;;;5077848;28;20208;-82
2022/09/02 01:03:50;;;;;;;0.27;0.27;;;17.40;99.90;;;;;;5096970;28;20671;-82
2022/09/02 01:06:20;;;;;;;1.13;1.07;;;17.40;99.90;;;;;;5081899;28;20186;-82
2022/09/02 01:08:53;;;;;;;0.23;0.23;;;17.30;99.90;;;;;;5092912;28;20184;-82
2022/09/02 01:11:20;;;;;;;0.27;0.27;;;17.20;99.90;;;;;;5095248;28;20199;-82
2022/09/02 01:13:46;;;;;;;0.57;0.40;;;17.20;99.90;;;;;;5083211;28;20260;-82
2022/09/02 01:16:15;;;;;;;0.30;0.30;;;17.20;99.90;;;;;;5082171;28;20184;-81
2022/09/02 01:18:46;;;;;;;0.40;0.30;;;17.20;99.90;;;;;;5079496;28;20180;-81
2022/09/02 01:21:12;;;;;;;0.20;0.20;;;17.20;99.90;;;;;;5084977;28;20201;-82
2022/09/02 01:23:38;;;;;;;0.30;0.30;;;17.30;99.90;;;;;;5086349;28;20637;-82
2022/09/02 01:26:06;;;;;;;1.50;0.23;;;17.30;99.90;;;;;;5083990;28;20179;-81
2022/09/02 01:28:32;;;;;;;3.77;0.30;;;17.20;99.90;;;;;;5088491;28;20215;-81
2022/09/02 01:30:58;;;;;;;0.30;0.30;;;17.10;99.90;;;;;;5081761;28;20289;-82
2022/09/02 01:33:24;;;;;;;0.27;0.27;;;17.10;99.90;;;;;;5084800;28;20274;-81
2022/09/02 01:35:50;;;;;;;0.60;0.43;;;17.00;99.90;;;;;;5091890;28;20288;-81
2022/09/02 01:38:17;;;;;;;0.30;0.30;;;17.00;99.90;;;;;;5083825;28;20236;-82
2022/09/02 01:40:43;;;;;;;0.10;0.10;;;17.00;99.90;;;;;;5084670;28;20265;-82
2022/09/02 01:43:12;;;;;;;0.60;0.40;;;17.00;99.90;;;;;;5093762;28;20652;-81
2022/09/02 01:45:40;;;;;;;0.40;0.40;;;17.00;99.90;;;;;;5079027;28;20173;-81
2022/09/02 01:48:07;;;;;;;0.17;0.17;;;17.00;99.90;;;;;;5079729;28;20180;-82
2022/09/02 01:50:36;;;;;;;0.20;0.20;;;16.90;99.90;;;;;;5086924;28;20214;-81
2022/09/02 01:53:02;;;;;;;0.33;0.23;;;16.90;99.90;;;;;;5084697;28;20176;-82
2022/09/02 01:55:29;;;;;;;1.03;0.50;;;16.90;99.90;;;;;;5083846;28;20226;-81
2022/09/02 01:57:54;;;;;;;1.00;0.40;;;16.90;99.90;;;;;;5082501;28;20200;-81
2022/09/02 02:00:20;;;;;;;0.37;0.37;;;16.80;99.90;;;;;;5083932;28;20696;-82
2022/09/02 02:02:46;;;;;;;0.30;0.30;;;16.80;99.90;;;;;;5087223;28;20180;-81
2022/09/02 02:05:12;;;;;;;0.63;0.60;;;16.70;99.90;;;;;;5085892;28;20168;-81
2022/09/02 02:07:39;;;;;;;0.30;0.30;;;16.70;99.90;;;;;;5084197;28;20185;-81
2022/09/02 02:10:06;;;;;;;0.40;0.40;;;16.70;99.90;;;;;;5088005;28;20206;-81
2022/09/02 02:12:32;;;;;;;0.57;0.50;;;16.80;99.90;;;;;;5098318;28;20188;-81
2022/09/02 02:15:01;;;;;;;0.20;0.20;;;16.80;99.90;;;;;;5084996;28;20190;-82
2022/09/02 02:17:26;;;;;;;0.20;0.20;;;16.80;99.90;;;;;;5087825;28;20187;-82
2022/09/02 02:19:52;;;;;;;0.37;0.37;;;16.70;99.90;;;;;;5092486;28;20210;-82
2022/09/02 02:22:17;;;;;;;0.20;0.20;;;16.70;99.90;;;;;;5088301;28;20188;-82
2022/09/02 02:24:43;;;;;;;0.20;0.20;;;16.60;99.90;;;;;;5091034;28;20839;-81
2022/09/02 02:27:08;;;;;;;0.43;0.27;;;16.60;99.90;;;;;;5091556;28;20188;-81
2022/09/02 02:29:34;;;;;;;0.40;0.40;;;16.60;99.90;;;;;;5090526;28;20684;-82
2022/09/02 02:31:59;;;;;;;0.63;0.40;;;16.60;99.90;;;;;;5088373;28;20176;-82
2022/09/02 02:34:25;;;;;;;0.30;0.30;;;16.60;99.90;;;;;;5088033;28;20249;-82
2022/09/02 02:36:50;;;;;;;0.60;0.47;;;16.50;99.90;;;;;;5080278;28;20211;-82
2022/09/02 02:39:16;;;;;;;0.53;0.53;;;16.50;99.90;;;;;;5089163;28;20199;-81
2022/09/02 02:41:42;;;;;;;0.23;0.23;;;16.50;99.90;;;;;;5081930;28;20215;-82
2022/09/02 02:44:09;;;;;;;0.90;0.30;;;16.40;99.90;;;;;;5095729;28;20175;-82
2022/09/02 02:46:34;;;;;;;0.30;0.30;;;16.40;99.90;;;;;;5087101;28;20177;-81
2022/09/02 02:49:02;;;;;;;0.30;0.30;;;16.40;99.90;;;;;;5087238;28;20203;-81
2022/09/02 02:51:27;;;;;;;0.40;0.40;;;16.40;99.90;;;;;;5095910;28;20187;-82
2022/09/02 02:53:53;;;;;;;0.30;0.30;;;16.40;99.90;;;;;;5087934;28;20553;-82
2022/09/02 02:56:19;;;;;;;0.27;0.23;;;16.30;99.90;;;;;;5088443;28;20185;-82
2022/09/02 02:58:45;;;;;;;0.53;0.40;;;16.30;99.90;;;;;;5101559;28;20186;-81
2022/09/02 03:01:10;;;;;;;0.30;0.30;;;16.30;99.90;;;;;;5089661;28;20243;-81
2022/09/02 03:03:36;;;;;;;0.37;0.30;;;16.30;99.90;;;;;;5094182;28;20741;-82
2022/09/02 03:06:02;;;;;;;0.30;0.30;;;16.30;99.90;;;;;;5096775;28;20192;-82
2022/09/02 03:08:27;;;;;;;1.40;0.57;;;16.30;99.90;;;;;;5087301;28;20278;-81
2022/09/02 03:10:54;;;;;;;0.50;0.50;;;16.30;99.90;;;;;;5096682;28;20231;-81
2022/09/02 03:13:22;;;;;;;0.50;0.50;;;16.30;99.90;;;;;;5083372;28;20221;-81
2022/09/02 03:15:48;;;;;;;0.40;0.40;;;16.20;99.90;;;;;;5086134;28;20230;-81
2022/09/02 03:18:14;;;;;;;0.40;0.40;;;16.30;99.90;;;;;;5100086;28;20596;-82
2022/09/02 03:20:41;;;;;;;0.40;0.40;;;16.20;99.90;;;;;;5097529;28;20296;-81
2022/09/02 03:23:07;;;;;;;0.20;0.20;;;16.20;99.90;;;;;;5096499;28;20655;-81
2022/09/02 03:25:34;;;;;;;0.40;0.40;;;16.20;99.90;;;;;;5097654;28;20191;-82
2022/09/02 03:28:01;;;;;;;0.40;0.40;;;16.20;99.90;;;;;;5098346;28;20187;-82
2022/09/02 03:30:28;;;;;;;0.40;0.40;;;16.10;99.90;;;;;;5097720;28;20699;-82
2022/09/02 03:32:58;;;;;;;0.57;0.30;;;16.10;99.90;;;;;;5094073;28;20183;-81
2022/09/02 03:35:23;;;;;;;0.30;0.30;;;16.20;99.90;;;;;;5079388;28;20237;-81
2022/09/02 03:37:50;;;;;;;0.40;0.40;;;16.20;99.90;;;;;;5086545;28;20186;-81
2022/09/02 03:40:19;;;;;;;0.40;0.37;;;16.10;99.90;;;;;;5095890;28;20209;-81
2022/09/02 03:42:45;;;;;;;0.10;0.10;;;16.20;99.90;;;;;;5090586;28;20183;-81
2022/09/02 03:45:14;;;;;;;0.20;0.20;;;16.10;99.90;;;;;;5091364;28;20190;-81
2022/09/02 03:47:44;;;;;;;0.30;0.30;;;16.10;99.90;;;;;;5084243;28;20187;-82
2022/09/02 03:50:10;;;;;;;0.33;0.33;;;16.10;99.90;;;;;;5079847;28;20225;-81
2022/09/02 03:52:36;;;;;;;0.30;0.30;;;16.10;99.90;;;;;;5079636;28;20184;-81
2022/09/02 03:55:03;;;;;;;0.23;0.23;;;16.10;99.90;;;;;;5091493;28;20192;-82
2022/09/02 03:57:29;;;;;;;0.27;0.27;;;16.10;99.90;;;;;;5086125;28;20188;-81
2022/09/02 03:59:55;;;;;;;1.03;0.57;;;16.20;99.90;;;;;;5086268;28;20242;-81
2022/09/02 04:02:21;;;;;;;0.30;0.30;;;16.20;99.90;;;;;;5089477;28;20212;-82
2022/09/02 04:04:46;;;;;;;0.50;0.50;;;16.30;99.90;;;;;;5100759;28;20185;-81
2022/09/02 04:07:12;;;;;;;0.30;0.30;;;16.30;99.90;;;;;;5087761;28;20700;-82
2022/09/02 04:09:38;;;;;;;0.20;0.20;;;16.30;99.90;;;;;;5079401;28;20199;-81
2022/09/02 04:12:05;;;;;;;0.50;0.43;;;16.30;99.90;;;;;;5081473;28;20250;-81
2022/09/02 04:14:31;;;;;;;0.40;0.30;;;16.30;99.90;;;;;;5079194;28;20184;-82
2022/09/02 04:16:57;;;;;;;0.40;0.40;;;16.30;99.90;;;;;;5088527;28;20187;-81
2022/09/02 04:19:22;;;;;;;0.40;0.40;;;16.20;99.90;;;;;;5090850;28;20204;-82
2022/09/02 04:21:48;;;;;;;0.67;0.30;;;16.30;99.90;;;;;;5086010;28;20214;-82
2022/09/02 04:24:13;;;;;;;0.20;0.20;;;16.30;99.90;;;;;;5092444;28;20181;-81
2022/09/02 04:26:39;;;;;;;0.20;0.20;;;16.30;99.90;;;;;;5080904;28;20214;-82
2022/09/02 04:29:06;;;;;;;0.47;0.47;;;16.30;99.90;;;;;;5086439;28;20208;-81
2022/09/02 04:31:32;;;;;;;0.47;0.47;;;16.30;99.90;;;;;;5097050;28;20657;-82
2022/09/02 04:33:59;;;;;;;0.30;0.30;;;16.30;99.90;;;;;;5094031;28;20287;-81
2022/09/02 04:36:25;;;;;;;0.47;0.47;;;16.30;99.90;;;;;;5082404;28;21015;-81
2022/09/02 04:38:52;;;;;;;0.50;0.50;;;16.30;99.90;;;;;;5077156;28;22054;-81
2022/09/02 04:41:24;;;;;;;0.40;0.30;;;16.30;99.90;;;;;;5088781;28;20704;-81
2022/09/02 04:43:51;;;;;;;0.20;0.20;;;16.20;99.90;;;;;;5083222;28;20188;-81
2022/09/02 04:46:18;;;;;;;0.30;0.30;;;16.30;99.90;;;;;;5088990;28;20186;-81
2022/09/02 04:48:44;;;;;;;0.43;0.37;;;16.20;99.90;;;;;;5089246;28;20655;-81
2022/09/02 04:51:14;;;;;;;0.50;0.50;;;16.30;99.90;;;;;;5085458;28;20262;-81
2022/09/02 04:53:40;;;;;;;0.40;0.40;;;16.30;99.90;;;;;;5094499;28;20187;-81
2022/09/02 04:56:07;;;;;;;4.17;0.80;;;16.30;99.90;;;;;;5082321;28;20183;-82
2022/09/02 04:58:33;;;;;;;0.27;0.27;;;16.20;99.90;;;;;;5079645;28;20191;-82
2022/09/02 05:01:09;;;;;;;0.40;0.40;;;16.30;99.90;;;;;;5088761;28;20221;-81
2022/09/02 05:03:35;;;;;;;0.27;0.27;;;16.40;99.90;;;;;;5078655;28;20185;-81
2022/09/02 05:06:04;;;;;;;0.40;0.40;;;16.40;99.90;;;;;;5073877;28;20181;-81
2022/09/02 05:08:29;;;;;;;0.37;0.37;;;16.40;99.90;;;;;;5080373;28;20180;-81
2022/09/02 05:10:55;;;;;;;0.10;0.10;;;16.40;99.90;;;;;;5092779;28;20212;-81
2022/09/02 05:13:22;;;;;;;0.30;0.30;;;16.40;99.90;;;;;;5082149;28;20642;-81
2022/09/02 05:15:48;;;;;;;0.33;0.33;;;16.50;99.90;;;;;;5089318;28;20184;-81
2022/09/02 05:18:14;;;;;;;0.17;0.17;;;16.50;99.90;;;;;;5078637;28;20195;-81
2022/09/02 05:20:42;;;;;;;0.47;0.30;;;16.50;99.90;;;;;;5081793;28;20588;-81
2022/09/02 05:23:10;;;;;;;0.43;0.43;;;16.50;99.90;;;;;;5085541;28;20544;-81
2022/09/02 05:25:37;;;;;;;0.33;0.33;;;16.50;99.90;;;;;;5078356;28;20191;-81
2022/09/02 05:28:03;;;;;;;0.20;0.20;;;16.50;99.90;;;;;;5078066;28;20254;-81
2022/09/02 05:30:28;;;;;;;0.30;0.30;;;16.50;99.90;;;;;;5082098;28;20242;-81
2022/09/02 05:32:54;;;;;;;0.47;0.47;;;16.50;99.90;;;;;;5081984;28;20193;-80
2022/09/02 05:35:20;;;;;;;0.43;0.43;;;16.50;99.90;;;;;;5102465;28;20601;-81
2022/09/02 05:37:46;;;;;;;0.30;0.30;;;16.50;99.90;;;;;;5084630;28;20184;-81
2022/09/02 05:40:11;;;;;;;0.20;0.20;;;16.60;99.90;;;;;;5082154;28;20256;-81
2022/09/02 05:42:38;;;;;;;0.20;0.20;;;16.70;99.90;;;;;;5084522;28;20170;-81
2022/09/02 05:45:05;;;;;;;0.20;0.20;;;16.80;99.90;;;;;;5089493;28;20191;-81
2022/09/02 05:47:33;;;;;;;0.40;0.40;;;16.90;99.90;;;;;;5084627;28;20187;-81
2022/09/02 05:50:00;;;;;;;0.50;0.50;;;17.00;99.90;;;;;;5085679;28;20230;-81
2022/09/02 05:52:26;;;;;;;0.33;0.33;;;17.00;99.90;;;;;;5086972;28;20230;-81
2022/09/02 05:54:52;;;;;;;0.50;0.50;;;17.00;99.90;;;;;;5086793;28;20189;-81
2022/09/02 05:57:18;;;;;;;0.40;0.40;;;17.00;99.90;;;;;;5083884;28;20278;-81
2022/09/02 05:59:43;;;;;;;0.20;0.20;;;17.20;99.90;;;;;;5083150;28;20227;-81
2022/09/02 06:02:11;;;;;;;0.40;0.30;;;17.30;99.90;;;;;;5082580;28;20195;-81
2022/09/02 06:04:43;;;;;;;0.20;0.20;;;17.30;99.90;;;;;;5086416;28;20259;-81
2022/09/02 06:07:09;;;;;;;0.20;0.20;;;17.40;99.90;;;;;;5078530;28;20191;-81
2022/09/02 06:09:35;;;;;;;0.30;0.30;;;17.40;99.90;;;;;;5088424;28;20197;-81
2022/09/02 06:12:01;;;;;;;0.40;0.40;;;17.40;99.90;;;;;;5080019;28;20714;-81
2022/09/02 06:14:26;;;;;;;0.50;0.50;;;17.50;99.90;;;;;;5080236;28;20177;-81
2022/09/02 06:16:54;;;;;;;0.50;0.50;;;17.50;99.90;;;;;;5081410;28;20200;-85
2022/09/02 06:19:21;;;;;;;1.73;0.47;;;17.60;99.90;;;;;;5082893;28;20215;-81
2022/09/02 06:21:47;;;;;;;0.43;0.43;;;17.60;99.90;;;;;;5082230;28;20869;-80
2022/09/02 06:24:13;;;;;;;0.73;0.50;;;17.70;99.90;;;;;;5079179;28;20184;-81
2022/09/02 06:26:40;;;;;;;0.30;0.30;;;17.90;99.90;;;;;;5078557;28;20177;-81
2022/09/02 06:29:07;;;;;;;0.40;0.40;;;17.90;99.90;;;;;;5079797;28;20172;-81
2022/09/02 06:31:33;;;;;;;0.43;0.40;;;17.80;99.90;;;;;;5094655;28;20204;-81
2022/09/02 06:33:59;;;;;;;0.93;0.70;;;17.70;99.90;;;;;;5088717;28;20181;-81
2022/09/02 06:36:27;;;;;;;0.67;0.30;;;17.80;99.90;;;;;;5084943;28;20824;-81
2022/09/02 06:38:54;;;;;;;0.33;0.33;;;17.90;99.90;;;;;;5087098;28;20199;-81
2022/09/02 06:41:25;;;;;;;0.30;0.30;;;18.10;99.90;;;;;;5076255;28;20248;-81
2022/09/02 06:43:51;;;;;;;0.50;0.50;;;18.10;99.90;;;;;;5082770;28;20183;-81
2022/09/02 06:46:20;;;;;;;0.40;0.40;;;18.20;99.90;;;;;;5084939;28;20176;-81
2022/09/02 06:48:47;;;;;;;0.57;0.57;;;18.20;99.90;;;;;;5096038;28;20211;-81
2022/09/02 06:51:21;;;;;;;0.40;0.40;;;18.10;99.90;;;;;;5087802;28;20699;-81
2022/09/02 06:53:47;;;;;;;0.50;0.50;;;18.20;99.90;;;;;;5092212;28;20676;-81
2022/09/02 06:56:12;;;;;;;0.40;0.40;;;18.40;99.90;;;;;;5084434;28;20178;-81
2022/09/02 06:58:38;;;;;;;0.53;0.53;;;18.70;99.90;;;;;;5080987;28;20191;-81
2022/09/02 07:01:04;;;;;;;0.50;0.50;;;18.50;99.90;;;;;;5085078;28;20709;-81
2022/09/02 07:06:13;;;;;;;0.50;0.50;;;18.50;99.90;;;;;;5081211;28;20254;-81
2022/09/02 07:08:41;;;;;;;0.50;0.50;;;18.70;99.90;;;;;;5093160;28;20277;-82
2022/09/02 07:11:19;;;;;;;0.30;0.30;;;18.40;99.90;;;;;;5083033;28;20203;-81
2022/09/02 07:13:46;;;;;;;0.50;0.50;;;18.50;99.90;;;;;;5077786;28;21981;-82
2022/09/02 07:16:12;;;;;;;0.97;0.77;;;18.50;99.90;;;;;;5094978;28;21164;-80
2022/09/02 07:18:38;;;;;;;0.33;0.33;;;18.60;99.90;;;;;;5079855;28;20203;-81
2022/09/02 07:21:04;;;;;;;0.43;0.43;;;18.60;99.90;;;;;;5098451;28;20288;-80
2022/09/02 07:23:29;;;;;;;1.20;1.10;;;18.90;99.90;;;;;;5091697;28;20177;-81
2022/09/02 07:25:55;;;;;;;0.63;0.63;;;18.60;99.90;;;;;;5102383;28;20650;-80
2022/09/02 07:28:21;;;;;;;0.47;0.47;;;18.70;99.90;;;;;;5094307;28;20176;-81
2022/09/02 07:30:47;;;;;;;0.53;0.53;;;18.70;99.90;;;;;;5092306;28;20206;-81
2022/09/02 07:33:14;;;;;;;0.30;0.30;;;18.80;99.90;;;;;;5086268;28;20627;-81
2022/09/02 07:35:43;;;;;;;0.50;0.50;;;18.90;99.90;;;;;;5091635;28;20596;-81
2022/09/02 07:38:10;;;;;;;0.30;0.30;;;19.20;99.90;;;;;;5094647;28;20168;-81
2022/09/02 07:40:37;;;;;;;0.83;0.40;;;19.20;99.90;;;;;;5075357;28;20303;-81
2022/09/02 07:43:05;;;;;;;0.70;0.63;;;19.80;99.90;;;;;;5086513;28;20176;-81
2022/09/02 07:45:31;;;;;;;0.53;0.53;;;20.10;99.90;;;;;;5093950;28;20252;-81
2022/09/02 07:47:57;;;;;;;0.17;0.17;;;20.10;99.90;;;;;;5088877;28;20184;-81
2022/09/02 07:50:25;;;;;;;0.30;0.30;;;20.30;99.90;;;;;;5086066;28;20216;-81
2022/09/02 07:52:53;;;;;;;1.13;0.60;;;20.30;99.90;;;;;;5089199;28;20180;-81
2022/09/02 07:55:20;;;;;;;0.40;0.40;;;20.50;99.90;;;;;;5084925;28;20192;-81
2022/09/02 07:57:46;;;;;;;0.50;0.50;;;20.80;99.90;;;;;;5082994;28;20663;-81
2022/09/02 08:00:13;;;;;;;1.00;1.00;;;21.00;99.90;;;;;;5089167;28;20696;-80
2022/09/02 08:02:38;;;;;;;0.50;0.50;;;21.00;99.90;;;;;;5084581;28;20222;-81
2022/09/02 08:05:04;;;;;;;0.60;0.60;;;21.00;99.90;;;;;;5088617;28;20172;-81
2022/09/02 08:07:30;;;;;;;0.50;0.50;;;20.50;99.90;;;;;;5089459;28;20611;-81
2022/09/02 08:09:55;;;;;;;1.00;0.60;;;20.30;99.90;;;;;;5088363;27;20214;-81
2022/09/02 08:12:21;;;;;;;0.93;0.63;;;20.20;99.90;;;;;;5082649;28;20168;-81
2022/09/02 08:14:46;;;;;;;0.30;0.30;;;20.80;99.90;;;;;;5083172;28;20184;-81
2022/09/02 08:17:12;;;;;;;0.30;0.30;;;20.80;99.90;;;;;;5089081;28;20172;-81
2022/09/02 08:19:37;;;;;;;0.40;0.40;;;21.10;99.90;;;;;;5092967;28;20200;-81
2022/09/02 08:22:05;;;;;;;0.70;0.70;;;21.30;99.90;;;;;;5091153;28;20581;-81
2022/09/02 08:24:31;;;;;;;3.90;0.60;;;21.40;99.90;;;;;;5090348;28;20226;-81
2022/09/02 08:26:57;;;;;;;0.23;0.23;;;21.40;99.90;;;;;;5086650;28;20168;-79
2022/09/02 08:29:22;;;;;;;0.43;0.40;;;21.80;99.90;;;;;;5090198;28;20200;-79
2022/09/02 08:31:48;;;;;;;0.57;0.57;;;21.80;99.90;;;;;;5087841;28;20210;-79
2022/09/02 08:34:13;;;;;;;0.30;0.30;;;21.50;99.90;;;;;;5085065;28;20645;-79
2022/09/02 08:36:42;;;;;;;0.60;0.57;;;21.70;99.90;;;;;;5095214;28;20235;-79
2022/09/02 08:39:09;;;;;;;0.47;0.47;;;21.50;99.90;;;;;;5086322;28;20177;-79
2022/09/02 08:41:53;;;;;;;0.40;0.40;;;21.70;99.90;;;;;;5086703;28;20200;-79
2022/09/02 08:44:23;;;;;;;0.30;0.30;;;22.00;99.90;;;;;;5085438;28;20185;-79
2022/09/02 08:47:00;;;;;;;0.73;0.60;;;21.50;99.90;;;;;;5084090;28;20281;-79
2022/09/02 08:49:32;;;;;;;0.70;0.70;;;21.40;99.90;;;;;;5085890;28;20499;-79
2022/09/02 08:52:01;;;;;;;0.40;0.40;;;21.20;99.90;;;;;;5090183;28;20180;-79
2022/09/02 08:54:35;;;;;;;0.33;0.33;;;21.10;99.90;;;;;;5086466;28;20204;-79
2022/09/02 08:57:01;;;;;;;0.50;0.50;;;21.30;99.90;;;;;;5089863;28;20231;-79
2022/09/02 08:59:30;;;;;;;0.53;0.50;;;21.40;99.90;;;;;;5088472;28;20261;-79
2022/09/02 09:02:20;;;;;;;0.37;0.37;;;21.20;99.90;;;;;;5082596;28;20258;-79
2022/09/02 09:05:10;;;;;;;0.43;0.43;;;21.50;99.90;;;;;;5089859;28;20650;-79
2022/09/02 09:07:56;;;;;;;0.47;0.47;;;22.00;99.90;;;;;;5093846;28;20191;-79
2022/09/02 09:10:30;;;;;;;0.30;0.30;;;22.40;99.90;;;;;;5084612;28;20724;-79
2022/09/02 09:13:16;;;;;;;0.30;0.30;;;22.60;99.90;;;;;;5090071;28;20580;-81
2022/09/02 09:15:57;;;;;;;0.50;0.50;;;22.70;99.90;;;;;;5086482;28;20187;-79
2022/09/02 09:18:34;;;;;;;0.67;0.67;;;22.90;99.90;;;;;;5086249;28;20668;-79
2022/09/02 09:20:59;;;;;;;0.37;0.37;;;23.00;99.90;;;;;;5090876;28;20630;-79
2022/09/02 09:23:32;;;;;;;0.53;0.30;;;23.20;99.90;;;;;;5082999;28;20234;-79
2022/09/02 09:26:10;;;;;;;0.60;0.60;;;23.50;99.90;;;;;;5084620;28;20714;-79
2022/09/02 09:28:44;;;;;;;0.20;0.20;;;23.70;99.90;;;;;;5092114;28;20703;-79
2022/09/02 09:31:14;;;;;;;1.00;0.67;;;23.50;99.90;;;;;;5080016;28;20207;-79
2022/09/02 09:34:04;;;;;;;0.40;0.40;;;23.60;99.90;;;;;;5084116;28;20187;-79
2022/09/02 09:36:39;;;;;;;0.57;0.57;;;23.70;99.90;;;;;;5081369;28;20723;-79
2022/09/02 09:39:21;;;;;;;0.40;0.40;;;23.70;99.90;;;;;;5085700;28;20733;-79
2022/09/02 09:41:47;;;;;;;0.37;0.30;;;23.70;99.90;;;;;;5091851;28;20208;-79
2022/09/02 09:44:38;;;;;;;0.47;0.47;;;23.90;99.90;;;;;;5085078;28;20180;-79
2022/09/02 09:47:18;;;;;;;0.40;0.40;;;23.80;99.90;;;;;;5091306;28;20233;-79
2022/09/02 09:50:07;;;;;;;0.40;0.40;;;23.40;99.90;;;;;;5081827;28;20217;-79
2022/09/02 09:52:32;;;;;;;0.57;0.50;;;22.80;99.90;;;;;;5086336;28;20694;-79
2022/09/02 09:55:27;;;;;;;0.43;0.43;;;23.10;99.90;;;;;;5083085;28;20271;-79
2022/09/02 09:58:07;;;;;;;0.50;0.50;;;23.20;99.90;;;;;;5070003;28;20201;-78
2022/09/02 10:00:33;;;;;;;0.70;0.70;;;23.90;99.90;;;;;;5090090;28;20692;-79
2022/09/02 10:03:03;;;;;;;0.30;0.30;;;24.30;99.90;;;;;;5091278;28;20364;-79
2022/09/02 10:05:34;;;;;;;0.23;0.23;;;24.60;99.90;;;;;;5091220;28;20638;-79
2022/09/02 10:08:17;;;;;;;0.63;0.40;;;24.90;99.90;;;;;;5087129;28;20606;-78
2022/09/02 10:10:56;;;;;;;0.40;0.40;;;24.90;99.90;;;;;;5090119;28;20212;-79
2022/09/02 10:13:33;;;;;;;0.57;0.43;;;25.20;99.90;;;;;;5092046;28;20562;-80
2022/09/02 10:16:20;;;;;;;1.17;0.90;;;25.10;99.90;;;;;;5099186;28;20195;-80
2022/09/02 10:18:57;;;;;;;0.30;0.30;;;24.60;99.90;;;;;;5082582;28;20181;-80
2022/09/02 10:21:25;;;;;;;0.60;0.60;;;24.10;99.90;;;;;;5095152;28;20572;-80
2022/09/02 10:24:19;;;;;;;0.50;0.40;;;24.10;99.90;;;;;;5093604;28;20181;-80
2022/09/02 10:26:49;;;;;;;0.30;0.30;;;23.80;99.90;;;;;;5088412;28;20176;-80
2022/09/02 10:29:39;;;;;;;0.77;0.50;;;24.40;99.90;;;;;;5089325;28;20557;-82
2022/09/02 10:32:11;;;;;;;2.83;0.77;;;25.20;99.90;;;;;;5092864;28;20274;-83
2022/09/02 10:34:58;;;;;;;0.50;0.20;;;25.50;99.90;;;;;;5098075;28;20195;-82
2022/09/02 10:37:29;;;;;;;0.20;0.20;;;25.40;99.90;;;;;;5098181;28;20658;-82
2022/09/02 10:40:08;;;;;;;0.50;0.50;;;25.50;99.90;;;;;;5093818;28;20686;-82
2022/09/02 10:43:06;;;;;;;0.30;0.30;;;25.20;99.90;;;;;;5094660;28;20260;-82
2022/09/02 10:45:38;;;;;;;0.43;0.40;;;25.60;99.90;;;;;;5089057;28;20263;-82
2022/09/02 10:48:35;;;;;;;0.57;0.50;;;26.00;99.90;;;;;;5097985;28;20222;-82
2022/09/02 10:51:24;;;;;;;0.33;0.33;;;25.70;99.90;;;;;;5089257;28;20212;-82
2022/09/02 10:53:52;;;;;;;0.93;0.60;;;24.80;99.90;;;;;;5089050;28;20192;-82
2022/09/02 10:56:21;;;;;;;0.43;0.40;;;24.30;99.90;;;;;;5092861;28;20189;-82
2022/09/02 10:58:59;;;;;;;0.83;0.60;;;24.40;99.90;;;;;;5094249;28;20184;-82
2022/09/02 11:01:47;;;;;;;0.43;0.43;;;24.30;99.90;;;;;;5087306;28;20203;-82
2022/09/02 11:04:32;;;;;;;0.30;0.30;;;24.30;99.90;;;;;;5092090;28;20185;-81
2022/09/02 11:06:59;;;;;;;0.20;0.20;;;24.90;99.90;;;;;;5087008;28;20213;-82
2022/09/02 11:09:32;;;;;;;0.73;0.63;;;25.40;99.90;;;;;;5091838;28;20633;-81
2022/09/02 11:12:15;;;;;;;0.30;0.20;;;25.30;99.90;;;;;;5089439;28;20646;-82
2022/09/02 11:15:10;;;;;;;0.47;0.40;;;25.60;99.90;;;;;;5087051;28;20176;-82
2022/09/02 11:17:47;;;;;;;0.50;0.50;;;26.00;99.90;;;;;;5088368;28;20176;-82
2022/09/02 11:20:54;;;;;;;0.50;0.50;;;26.20;99.90;;;;;;5093571;28;20211;-82
2022/09/02 11:23:42;;;;;;;0.40;0.40;;;26.30;99.90;;;;;;5078539;28;20185;-82
2022/09/02 11:26:17;;;;;;;0.47;0.47;;;26.00;99.90;;;;;;5095099;28;20204;-82
2022/09/02 11:29:00;;;;;;;0.33;0.33;;;25.20;99.90;;;;;;5087977;28;20172;-82
2022/09/02 11:31:33;;;;;;;0.33;0.33;;;25.90;99.90;;;;;;5088450;28;20172;-82
2022/09/02 11:34:34;;;;;;;0.43;0.40;;;26.30;99.90;;;;;;5087318;28;20188;-82
2022/09/02 11:37:03;;;;;;;0.40;0.40;;;26.60;99.90;;;;;;5102043;28;20175;-82
2022/09/02 11:39:39;;;;;;;0.40;0.40;;;26.70;99.90;;;;;;5084848;28;20205;-82
2022/09/02 11:42:42;;;;;;;0.33;0.33;;;25.80;99.90;;;;;;5088773;28;20640;-82
2022/09/02 11:45:27;;;;;;;0.60;0.60;;;25.70;99.90;;;;;;5086496;28;20169;-82
2022/09/02 11:48:13;;;;;;;0.20;0.20;;;25.70;99.90;;;;;;5089443;28;20186;-82
2022/09/02 11:50:52;;;;;;;0.47;0.47;;;25.70;99.90;;;;;;5087821;28;20743;-82
2022/09/02 11:53:37;;;;;;;0.37;0.37;;;26.00;99.90;;;;;;5083271;28;20174;-82
2022/09/02 11:56:16;;;;;;;0.50;0.50;;;25.90;99.90;;;;;;5085150;28;20236;-82
2022/09/02 11:58:51;;;;;;;0.80;0.50;;;26.50;99.90;;;;;;5089273;28;20180;-82
2022/09/02 12:01:28;;;;;;;0.40;0.40;;;26.10;99.90;;;;;;5086223;28;20660;-82
2022/09/02 12:04:18;;;;;;;0.20;0.20;;;26.10;99.90;;;;;;5093851;28;20187;-82
2022/09/02 12:07:05;;;;;;;0.40;0.40;;;25.80;99.90;;;;;;5082689;28;20658;-82
2022/09/02 12:09:47;;;;;;;0.80;0.80;;;25.20;99.90;;;;;;5087765;28;20273;-82
2022/09/02 12:12:37;;;;;;;0.70;0.60;;;25.20;99.90;;;;;;5077664;28;20172;-82
2022/09/02 12:15:06;;;;;;;0.30;0.30;;;25.40;99.90;;;;;;5085859;28;20176;-82
2022/09/02 12:17:37;;;;;;;0.40;0.40;;;25.00;99.90;;;;;;5093574;28;20172;-82
2022/09/02 12:20:06;;;;;;;0.47;0.47;;;25.50;99.90;;;;;;5079240;28;20235;-82
2022/09/02 12:22:37;;;;;;;0.40;0.40;;;25.00;99.90;;;;;;5089781;28;20200;-83
2022/09/02 12:25:23;;;;;;;0.53;0.40;;;25.20;99.90;;;;;;5088470;28;20173;-81
2022/09/02 12:27:49;;;;;;;0.67;0.40;;;25.80;99.90;;;;;;5082879;28;20177;-81
2022/09/02 12:31:08;;;;;;;0.57;0.50;;;26.30;99.90;;;;;;5093403;28;20634;-82
2022/09/02 12:33:35;;;;;;;0.30;0.30;;;26.50;99.90;;;;;;5048452;28;20184;-82
2022/09/02 12:36:03;;;;;;;0.37;0.37;;;26.80;99.90;;;;;;5087406;28;20687;-82
2022/09/02 12:38:34;;;;;;;0.43;0.43;;;26.80;99.90;;;;;;5086108;28;20188;-82
2022/09/02 12:41:20;;;;;;;0.20;0.20;;;25.70;99.90;;;;;;5085174;28;20212;-81
2022/09/02 12:44:40;;;;;;;0.27;0.27;;;26.10;99.90;;;;;;5096296;28;20169;-82
2022/09/02 12:47:18;;;;;;;0.30;0.30;;;26.00;99.90;;;;;;5028919;28;20188;-82
2022/09/02 12:50:15;;;;;;;0.40;0.40;;;25.40;99.90;;;;;;5091821;28;20593;-82
2022/09/02 12:52:44;;;;;;;0.40;0.40;;;25.50;99.90;;;;;;5089934;28;20191;-82
2022/09/02 12:55:13;;;;;;;0.50;0.50;;;25.90;99.90;;;;;;5101444;27;20187;-81
2022/09/02 12:57:47;;;;;;;0.57;0.57;;;26.10;99.90;;;;;;5099057;28;20184;-83
2022/09/02 13:00:32;;;;;;;2.33;0.90;;;25.30;99.90;;;;;;5093588;28;20262;-83
2022/09/02 13:03:10;;;;;;;0.27;0.27;;;25.50;99.90;;;;;;5089944;28;20183;-82
2022/09/02 13:06:03;;;;;;;0.50;0.50;;;25.70;99.90;;;;;;5094153;27;20175;-82
2022/09/02 13:08:44;;;;;;;0.20;0.20;;;25.40;99.90;;;;;;5093557;28;20184;-81